• Join FlightAware (Why Join?)
  • Login
  • US Flag 
Gobble Gobble! 
08:44AM EST


 

Airport Tracker/Info


-or-


 

Live Flight TrackerFlight Track Log ✈ N604DF ✈ 22-May-2013 ✈ KHOU - KDAL

Flight Track Log - Related Links

Times and Time Zones

All times are in EDT time to prevent confusion due to time zone crossing. See the N604DF flight status page for this flight to view local times or setup timezone preferences in your user account.

Time Position Orientation Groundspeed Altitude Reporting Facility
EDT Latitude Longitude Course Direction KTS MPH feet Rate Location/Type
03:24PM 29.6338 -95.2864 200° South 187 215 900  Level FlightAware ADS-B
03:24PM 29.6296 -95.2870 187° South 201 231 1,100 2,220 Climbing FlightAware ADS-B
03:25PM 29.6267 -95.2868 177° South 206 237 1,200 3,180 Climbing FlightAware ADS-B
03:25PM 29.6147 -95.2817 160° South 232 267 1,900 3,120 Climbing FlightAware ADS-B
03:25PM 29.6093 -95.2768 142° Southeast 245 282 2,200 3,240 Climbing FlightAware ADS-B
03:25PM 29.6056 -95.2720 132° Southeast 253 291 2,500 3,720 Climbing FlightAware ADS-B
03:25PM 29.6033 -95.2676 121° Southeast 256 295 2,700 3,240 Climbing FlightAware ADS-B
03:25PM 29.6004 -95.2584 110° East 256 295 3,100 3,180 Climbing FlightAware ADS-B
03:25PM 29.5998 -95.2503 95° East 256 295 3,400 3,240 Climbing FlightAware ADS-B
03:25PM 29.6005 -95.2438 83° East 257 296 3,700 3,300 Climbing FlightAware ADS-B
03:25PM 29.6018 -95.2386 74° East 258 297 3,900 2,700 Climbing FlightAware ADS-B
03:25PM 29.6060 -95.2299 61° Northeast 259 298 4,200 1,740 Climbing FlightAware ADS-B
03:26PM 29.6440 -95.2154 18° North 281 323 5,100 1,440 Climbing FlightAware ADS-B
03:26PM 29.6478 -95.2164 347° North 284 327 5,100  Level FlightAware ADS-B
03:26PM 29.6565 -95.2191 345° North 289 333 5,100 420 Level FlightAware ADS-B
03:26PM 29.6636 -95.2225 337° Northwest 283 326 5,200 1,980 Climbing FlightAware ADS-B
03:26PM 29.6672 -95.2248 331° Northwest 280 322 5,400 3,720 Climbing FlightAware ADS-B
03:26PM 29.6716 -95.2282 326° Northwest 270 311 5,700 3,720 Climbing FlightAware ADS-B
03:26PM 29.6749 -95.2312 322° Northwest 265 305 5,900 3,780 Climbing FlightAware ADS-B
03:27PM 29.6822 -95.2384 319° Northwest 261 300 6,400 3,720 Climbing FlightAware ADS-B
03:27PM 29.6962 -95.2539 316° Northwest 264 304 7,400 3,480 Climbing FlightAware ADS-B
03:27PM 29.7232 -95.2858 314° West 285 328 9,100 3,120 Climbing FlightAware ADS-B
03:28PM 29.7660 -95.3389 313° West 322 371 11,300 2,880 Climbing FlightAware ADS-B
03:28PM 29.7767 -95.3487 325° Northwest 327 376 11,700 3,000 Climbing FlightAware ADS-B
03:28PM 29.7831 -95.3526 332° Northwest 329 379 12,000 3,240 Climbing FlightAware ADS-B
03:28PM 29.7921 -95.3562 341° North 332 382 12,300 3,000 Climbing FlightAware ADS-B
03:31PM 30.0017 -95.3898 352° North 360 414 18,800 2,700 Climbing FlightAware ADS-B
03:32PM 30.1742 -95.4167 352° North 377 434 23,000 2,280 Climbing FlightAware ADS-B
03:33PM 30.2296 -95.4253 352° North 388 447 24,000 900 Climbing FlightAware ADS-B
03:33PM 30.2876 -95.4344 352° North 418 481 24,000  Level FlightAware ADS-B
03:34PM 30.4170 -95.4546 352° North 455 524 24,000  Level FlightAware ADS-B
03:35PM 30.4825 -95.4648 352° North 456 525 24,000  Level FlightAware ADS-B
03:36PM 30.5831 -95.4865 349° North 456 525 24,000  Level FlightAware ADS-B
03:36PM 30.6459 -95.5006 349° North 452 520 24,000  Level FlightAware ADS-B
03:42PM 31.2819 -95.6449 349° North 444 511 24,000  Level FlightAware ADS-B
03:43PM 31.3984 -95.6915 334° Northwest 435 501 24,000  Level FlightAware ADS-B
03:43PM 31.4880 -95.7510 330° Northwest 434 499 24,000  Level FlightAware
03:44PM 31.5287 -95.7774 331° Northwest 434 499 24,000  Level FlightAware ADS-B
03:46PM 31.7383 -95.9170 330° Northwest 435 501 24,000 -120 Level FlightAware ADS-B
03:47PM 31.8673 -96.0034 330° Northwest 441 507 23,800 -720 Descending FlightAware ADS-B
03:48PM 31.9254 -96.0423 330° Northwest 447 514 22,800 -2,400 Descending FlightAware ADS-B
03:48PM 32.0003 -96.0928 330° Northwest 426 490 20,800 -2,820 Descending FlightAware ADS-B
03:49PM 32.0516 -96.1272 330° Northwest 406 467 19,400 -2,760 Descending FlightAware ADS-B
03:49PM 32.1029 -96.1620 330° Northwest 399 459 18,000 -2,640 Descending FlightAware ADS-B
03:50PM 32.1536 -96.1962 330° Northwest 399 459 16,600 -2,580 Descending FlightAware ADS-B
03:50PM 32.2031 -96.2285 331° Northwest 400 460 15,300 -2,580 Descending FlightAware ADS-B
03:51PM 32.2688 -96.2673 333° Northwest 398 458 13,600 -2,520 Descending FlightAware ADS-B
03:52PM 32.3490 -96.3160 333° Northwest 355 409 11,400 -2,340 Descending FlightAware
03:53PM 32.4040 -96.3490 333° Northwest 317 365 10,000 -1,980 Descending FlightAware
03:53PM 32.4400 -96.3710 333° Northwest 297 342 9,100 -1,140 Descending FlightAware
03:53PM 32.4720 -96.3900 333° Northwest 281 323 9,000 -180 Descending FlightAware
03:54PM 32.4900 -96.4010 333° Northwest 279 321 9,000 -960 Level FlightAware
03:54PM 32.5240 -96.4220 332° Northwest 283 326 8,300 -1,620 Descending FlightAware
03:54PM 32.5440 -96.4330 335° Northwest 287 330 7,800 -1,980 Descending FlightAware
03:55PM 32.5710 -96.4500 332° Northwest 288 331 7,000 -1,860 Descending FlightAware
03:55PM 32.6070 -96.4720 333° Northwest 289 333 6,100 -1,800 Descending FlightAware
03:56PM 32.6430 -96.4930 334° Northwest 288 331 5,200 -1,200 Descending FlightAware
03:56PM 32.6720 -96.5160 326° Northwest 289 333 5,000 -300 Descending FlightAware
03:57PM 32.6860 -96.5290 322° Northwest 290 334 5,000  Level FlightAware
03:57PM 32.7170 -96.5600 320° Northwest 281 323 5,000  Level FlightAware
03:57PM 32.7430 -96.5850 321° Northwest 289 333 5,000 -120 Level FlightAware
03:58PM 32.7730 -96.6180 317° Northwest 293 337 4,900 -600 Descending FlightAware
03:58PM 32.7970 -96.6450 317° Northwest 288 331 4,500 -1,020 Descending FlightAware
03:59PM 32.8260 -96.6780 316° Northwest 278 320 4,000 -600 Descending FlightAware
03:59PM 32.8500 -96.7040 318° Northwest 279 321 4,000  Level FlightAware
04:00PM 32.8630 -96.7190 316° Northwest 280 322 4,000 -180 Level FlightAware
04:00PM 32.8930 -96.7520 317° Northwest 279 321 3,900 -600 Descending FlightAware
04:00PM 32.9150 -96.7770 316° Northwest 260 299 3,500 -1,080 Descending FlightAware
04:01PM 32.9270 -96.7900 318° Northwest 248 285 3,200 -840 Descending FlightAware
04:01PM 32.9370 -96.8060 307° West 223 257 3,100 -420 Descending FlightAware
04:01PM 32.9400 -96.8230 282° West 209 241 3,000 -240 Descending FlightAware
04:01PM 32.9420 -96.8400 278° West 204 235 3,000 -240 Level FlightAware
04:02PM 32.9420 -96.8570 270° West 207 238 2,900 -780 Descending FlightAware
04:02PM 32.9400 -96.8840 265° West 191 220 2,500 -900 Descending FlightAware
04:02PM 32.9360 -96.8980 251° West 191 220 2,300 -840 Descending FlightAware
04:03PM 32.9240 -96.9080 215° Southwest 195 224 2,100 -600 Descending FlightAware
04:03PM 32.9120 -96.9110 192° South 190 219 2,000 -240 Descending FlightAware
04:03PM 32.9030 -96.9120 185° South 176 203 2,000 -480 Level FlightAware
04:04PM 32.8830 -96.9050 164° South 149 171 1,700 -480 Descending FlightAware
04:04PM 32.8700 -96.8840 126° Southeast 144 166 1,500 -360 Descending FlightAware
04:12PM 32.8471 -96.8518 301° West  Level Estimated
04:13PM 32.8471 -96.8518 301° West  Level Estimated